Dewar, Iowa
Current Conditions -  °F | °C
As of 6:18 AM on Monday 26 Jan 2015 (Local Time) from KALO Reporting Station
Light Snow Light Snow  
Wind Chill: 16°   Ceiling: 1600
Heat Index: 26°   Visibility: 4mi
Dew Point: 24°   Wind: 10mph
Humidity: 92%   Direction: 170°S
Pressure: 29.87"   Gusts: NA
Location:  42.53°N, 92.22°W
Report Text: KALO 261218Z AUTO 17009KT 4SM -SN BR OVC016 M03/M04 A2987 RMK AO2 PRESFR P0000 T10331044
Loading
Personal Weather Stations






























Interactive Weather Map New forecast layout! Learn more

10-Day Weather Forecast

Advertisements
Track Severe Weather on mobile